sensor_id;sensor_type;location;lat;lon;timestamp;temperature;humidity
39325;DHT22;25037;49.488;9.900;2023-01-15T00:01:39;13.30;68.40
39325;DHT22;25037;49.488;9.900;2023-01-15T00:04:06;13.30;68.40
39325;DHT22;25037;49.488;9.900;2023-01-15T00:06:39;13.30;68.40
39325;DHT22;25037;49.488;9.900;2023-01-15T00:09:06;13.30;68.30
39325;DHT22;25037;49.488;9.900;2023-01-15T00:11:34;13.30;68.30
39325;DHT22;25037;49.488;9.900;2023-01-15T00:14:00;13.30;68.30
39325;DHT22;25037;49.488;9.900;2023-01-15T00:16:27;13.30;68.20
39325;DHT22;25037;49.488;9.900;2023-01-15T00:18:58;13.30;68.10
39325;DHT22;25037;49.488;9.900;2023-01-15T00:21:27;13.30;68.10
39325;DHT22;25037;49.488;9.900;2023-01-15T00:23:54;13.40;68.00
39325;DHT22;25037;49.488;9.900;2023-01-15T00:26:40;13.40;68.00
39325;DHT22;25037;49.488;9.900;2023-01-15T00:29:25;13.40;68.00
39325;DHT22;25037;49.488;9.900;2023-01-15T00:34:19;13.40;68.00
39325;DHT22;25037;49.488;9.900;2023-01-15T00:36:45;13.40;68.00
39325;DHT22;25037;49.488;9.900;2023-01-15T00:39:12;13.40;68.00
39325;DHT22;25037;49.488;9.900;2023-01-15T00:41:39;13.40;67.90
39325;DHT22;25037;49.488;9.900;2023-01-15T00:44:05;13.40;67.90
39325;DHT22;25037;49.488;9.900;2023-01-15T00:46:32;13.40;67.90
39325;DHT22;25037;49.488;9.900;2023-01-15T00:49:00;13.50;68.00
39325;DHT22;25037;49.488;9.900;2023-01-15T00:51:26;13.40;68.00
39325;DHT22;25037;49.488;9.900;2023-01-15T00:53:53;13.50;68.00
39325;DHT22;25037;49.488;9.900;2023-01-15T00:56:20;13.50;67.90
39325;DHT22;25037;49.488;9.900;2023-01-15T00:58:46;13.50;67.90
39325;DHT22;25037;49.488;9.900;2023-01-15T01:01:13;13.50;67.90
39325;DHT22;25037;49.488;9.900;2023-01-15T01:03:41;13.50;67.90
39325;DHT22;25037;49.488;9.900;2023-01-15T01:06:08;13.50;67.80
39325;DHT22;25037;49.488;9.900;2023-01-15T01:08:36;13.50;67.70
39325;DHT22;25037;49.488;9.900;2023-01-15T01:11:04;13.50;67.70
39325;DHT22;25037;49.488;9.900;2023-01-15T01:13:32;13.50;67.60
39325;DHT22;25037;49.488;9.900;2023-01-15T01:15:59;13.50;67.60
39325;DHT22;25037;49.488;9.900;2023-01-15T01:18:26;13.60;67.60
39325;DHT22;25037;49.488;9.900;2023-01-15T01:20:54;13.60;67.60
39325;DHT22;25037;49.488;9.900;2023-01-15T01:23:22;13.60;67.50
39325;DHT22;25037;49.488;9.900;2023-01-15T01:25:49;13.60;67.60
39325;DHT22;25037;49.488;9.900;2023-01-15T01:28:16;13.60;67.60
39325;DHT22;25037;49.488;9.900;2023-01-15T01:30:42;13.60;67.50
39325;DHT22;25037;49.488;9.900;2023-01-15T01:33:09;13.60;67.50
39325;DHT22;25037;49.488;9.900;2023-01-15T01:35:36;13.60;67.40
39325;DHT22;25037;49.488;9.900;2023-01-15T01:38:02;13.60;67.40
39325;DHT22;25037;49.488;9.900;2023-01-15T01:40:29;13.60;67.40
39325;DHT22;25037;49.488;9.900;2023-01-15T01:42:56;13.60;67.40
39325;DHT22;25037;49.488;9.900;2023-01-15T01:45:27;13.60;67.30
39325;DHT22;25037;49.488;9.900;2023-01-15T01:48:01;13.60;67.30
39325;DHT22;25037;49.488;9.900;2023-01-15T01:50:31;13.70;67.30
39325;DHT22;25037;49.488;9.900;2023-01-15T01:53:09;13.70;67.40
39325;DHT22;25037;49.488;9.900;2023-01-15T01:55:37;13.70;67.50
39325;DHT22;25037;49.488;9.900;2023-01-15T01:58:06;13.70;67.50
39325;DHT22;25037;49.488;9.900;2023-01-15T02:00:37;13.70;67.60
39325;DHT22;25037;49.488;9.900;2023-01-15T02:03:07;13.70;67.80
39325;DHT22;25037;49.488;9.900;2023-01-15T02:05:39;13.60;68.00
39325;DHT22;25037;49.488;9.900;2023-01-15T02:08:09;13.60;68.30
39325;DHT22;25037;49.488;9.900;2023-01-15T02:10:36;13.60;68.40
39325;DHT22;25037;49.488;9.900;2023-01-15T02:13:10;13.50;68.70
39325;DHT22;25037;49.488;9.900;2023-01-15T02:15:46;13.50;69.10
39325;DHT22;25037;49.488;9.900;2023-01-15T02:18:21;13.40;69.50
39325;DHT22;25037;49.488;9.900;2023-01-15T02:20:53;13.40;69.80
39325;DHT22;25037;49.488;9.900;2023-01-15T02:26:44;13.20;70.30
39325;DHT22;25037;49.488;9.900;2023-01-15T02:32:14;13.10;71.00
39325;DHT22;25037;49.488;9.900;2023-01-15T02:34:43;13.10;71.20
39325;DHT22;25037;49.488;9.900;2023-01-15T02:37:21;13.00;70.90
39325;DHT22;25037;49.488;9.900;2023-01-15T02:39:50;12.90;71.50
39325;DHT22;25037;49.488;9.900;2023-01-15T02:42:19;12.90;71.60
39325;DHT22;25037;49.488;9.900;2023-01-15T02:44:50;12.90;72.00
39325;DHT22;25037;49.488;9.900;2023-01-15T02:47:23;12.90;72.20
39325;DHT22;25037;49.488;9.900;2023-01-15T02:49:53;12.80;72.40
39325;DHT22;25037;49.488;9.900;2023-01-15T02:52:24;12.80;72.50
39325;DHT22;25037;49.488;9.900;2023-01-15T02:55:04;12.80;72.70
39325;DHT22;25037;49.488;9.900;2023-01-15T02:57:35;12.70;72.90
39325;DHT22;25037;49.488;9.900;2023-01-15T03:00:06;12.70;73.10
39325;DHT22;25037;49.488;9.900;2023-01-15T03:02:43;12.70;73.30
39325;DHT22;25037;49.488;9.900;2023-01-15T03:05:35;12.70;73.50
39325;DHT22;25037;49.488;9.900;2023-01-15T03:08:06;12.70;73.50
39325;DHT22;25037;49.488;9.900;2023-01-15T03:10:41;12.70;73.70
39325;DHT22;25037;49.488;9.900;2023-01-15T03:13:20;12.60;73.90
39325;DHT22;25037;49.488;9.900;2023-01-15T03:15:57;12.70;74.00
39325;DHT22;25037;49.488;9.900;2023-01-15T03:18:54;12.70;74.10
39325;DHT22;25037;49.488;9.900;2023-01-15T03:21:27;12.60;74.00
39325;DHT22;25037;49.488;9.900;2023-01-15T03:23:57;12.60;74.10
39325;DHT22;25037;49.488;9.900;2023-01-15T03:26:27;12.70;74.10
39325;DHT22;25037;49.488;9.900;2023-01-15T03:28:54;12.70;74.10
39325;DHT22;25037;49.488;9.900;2023-01-15T03:31:21;12.70;74.10
39325;DHT22;25037;49.488;9.900;2023-01-15T03:33:48;12.70;74.10
39325;DHT22;25037;49.488;9.900;2023-01-15T03:36:15;12.70;74.20
39325;DHT22;25037;49.488;9.900;2023-01-15T03:38:43;12.70;74.20
39325;DHT22;25037;49.488;9.900;2023-01-15T03:41:25;12.70;74.20
39325;DHT22;25037;49.488;9.900;2023-01-15T03:46:59;12.70;74.30
39325;DHT22;25037;49.488;9.900;2023-01-15T03:52:04;12.70;74.20
39325;DHT22;25037;49.488;9.900;2023-01-15T03:57:49;12.80;74.30
39325;DHT22;25037;49.488;9.900;2023-01-15T04:02:50;12.80;74.30
39325;DHT22;25037;49.488;9.900;2023-01-15T04:05:18;12.80;74.40
39325;DHT22;25037;49.488;9.900;2023-01-15T04:07:49;12.80;74.40
39325;DHT22;25037;49.488;9.900;2023-01-15T04:10:16;12.70;74.60
39325;DHT22;25037;49.488;9.900;2023-01-15T04:12:43;12.70;74.60
39325;DHT22;25037;49.488;9.900;2023-01-15T04:15:11;12.70;74.70
39325;DHT22;25037;49.488;9.900;2023-01-15T04:17:37;12.70;74.80
39325;DHT22;25037;49.488;9.900;2023-01-15T04:20:05;12.70;74.90
39325;DHT22;25037;49.488;9.900;2023-01-15T04:22:32;12.70;74.90
39325;DHT22;25037;49.488;9.900;2023-01-15T04:24:59;12.70;75.00
39325;DHT22;25037;49.488;9.900;2023-01-15T04:27:25;12.70;75.10
39325;DHT22;25037;49.488;9.900;2023-01-15T04:29:52;12.70;75.10
39325;DHT22;25037;49.488;9.900;2023-01-15T04:32:19;12.70;75.20
39325;DHT22;25037;49.488;9.900;2023-01-15T04:34:46;12.70;75.20
39325;DHT22;25037;49.488;9.900;2023-01-15T04:37:13;12.70;75.30
39325;DHT22;25037;49.488;9.900;2023-01-15T04:39:40;12.70;75.40
39325;DHT22;25037;49.488;9.900;2023-01-15T04:42:10;12.70;75.50
39325;DHT22;25037;49.488;9.900;2023-01-15T04:44:56;12.70;75.60
39325;DHT22;25037;49.488;9.900;2023-01-15T04:47:23;12.70;75.60
39325;DHT22;25037;49.488;9.900;2023-01-15T04:49:50;12.70;75.60
39325;DHT22;25037;49.488;9.900;2023-01-15T04:52:16;12.70;75.60
39325;DHT22;25037;49.488;9.900;2023-01-15T04:54:43;12.70;75.70
39325;DHT22;25037;49.488;9.900;2023-01-15T04:57:10;12.70;75.70
39325;DHT22;25037;49.488;9.900;2023-01-15T04:59:37;12.70;75.80
39325;DHT22;25037;49.488;9.900;2023-01-15T05:02:04;12.70;76.00
39325;DHT22;25037;49.488;9.900;2023-01-15T05:04:33;12.70;76.00
39325;DHT22;25037;49.488;9.900;2023-01-15T05:07:01;12.70;76.10
39325;DHT22;25037;49.488;9.900;2023-01-15T05:09:29;12.60;76.20
39325;DHT22;25037;49.488;9.900;2023-01-15T05:11:56;12.60;76.30
39325;DHT22;25037;49.488;9.900;2023-01-15T05:14:22;12.40;75.60
39325;DHT22;25037;49.488;9.900;2023-01-15T05:16:49;12.30;75.20
39325;DHT22;25037;49.488;9.900;2023-01-15T05:19:15;12.20;75.20
39325;DHT22;25037;49.488;9.900;2023-01-15T05:21:43;12.00;75.00
39325;DHT22;25037;49.488;9.900;2023-01-15T05:24:14;11.90;75.00
39325;DHT22;25037;49.488;9.900;2023-01-15T05:26:42;11.80;75.10
39325;DHT22;25037;49.488;9.900;2023-01-15T05:29:12;11.70;75.20
39325;DHT22;25037;49.488;9.900;2023-01-15T05:31:39;11.60;75.30
39325;DHT22;25037;49.488;9.900;2023-01-15T05:34:09;11.50;75.30
39325;DHT22;25037;49.488;9.900;2023-01-15T05:36:35;11.40;75.30
39325;DHT22;25037;49.488;9.900;2023-01-15T05:39:03;11.30;75.40
39325;DHT22;25037;49.488;9.900;2023-01-15T05:41:29;11.30;75.50
39325;DHT22;25037;49.488;9.900;2023-01-15T05:44:28;11.30;75.60
39325;DHT22;25037;49.488;9.900;2023-01-15T05:46:58;11.30;75.70
39325;DHT22;25037;49.488;9.900;2023-01-15T05:49:26;11.30;75.70
39325;DHT22;25037;49.488;9.900;2023-01-15T05:51:55;11.30;75.80
39325;DHT22;25037;49.488;9.900;2023-01-15T05:54:24;11.30;75.80
39325;DHT22;25037;49.488;9.900;2023-01-15T05:56:51;11.30;75.80
39325;DHT22;25037;49.488;9.900;2023-01-15T05:59:20;11.30;75.80
39325;DHT22;25037;49.488;9.900;2023-01-15T06:01:48;11.30;75.90
39325;DHT22;25037;49.488;9.900;2023-01-15T06:04:15;11.30;75.80
39325;DHT22;25037;49.488;9.900;2023-01-15T06:06:47;11.30;75.90
39325;DHT22;25037;49.488;9.900;2023-01-15T06:09:15;11.30;75.90
39325;DHT22;25037;49.488;9.900;2023-01-15T06:11:41;11.30;75.90
39325;DHT22;25037;49.488;9.900;2023-01-15T06:14:10;11.40;75.90
39325;DHT22;25037;49.488;9.900;2023-01-15T06:16:38;11.30;75.90
39325;DHT22;25037;49.488;9.900;2023-01-15T06:19:08;11.40;75.90
39325;DHT22;25037;49.488;9.900;2023-01-15T06:21:35;11.30;75.80
39325;DHT22;25037;49.488;9.900;2023-01-15T06:24:02;11.30;75.70
39325;DHT22;25037;49.488;9.900;2023-01-15T06:26:29;11.30;75.70
39325;DHT22;25037;49.488;9.900;2023-01-15T06:28:55;11.30;75.50
39325;DHT22;25037;49.488;9.900;2023-01-15T06:31:23;11.20;75.40
39325;DHT22;25037;49.488;9.900;2023-01-15T06:33:52;11.10;75.30
39325;DHT22;25037;49.488;9.900;2023-01-15T06:36:21;11.10;75.30
39325;DHT22;25037;49.488;9.900;2023-01-15T06:38:49;11.10;75.20
39325;DHT22;25037;49.488;9.900;2023-01-15T06:41:18;11.00;75.20
39325;DHT22;25037;49.488;9.900;2023-01-15T06:44:04;10.90;75.20
39325;DHT22;25037;49.488;9.900;2023-01-15T06:46:50;10.80;75.20
39325;DHT22;25037;49.488;9.900;2023-01-15T06:49:36;10.80;75.20
39325;DHT22;25037;49.488;9.900;2023-01-15T06:52:03;10.70;75.20
39325;DHT22;25037;49.488;9.900;2023-01-15T06:54:31;10.70;75.20
39325;DHT22;25037;49.488;9.900;2023-01-15T06:56:57;10.70;75.10
39325;DHT22;25037;49.488;9.900;2023-01-15T06:59:24;10.70;74.90
39325;DHT22;25037;49.488;9.900;2023-01-15T07:01:51;10.60;74.80
39325;DHT22;25037;49.488;9.900;2023-01-15T07:04:17;10.60;74.60
39325;DHT22;25037;49.488;9.900;2023-01-15T07:06:44;10.50;74.50
39325;DHT22;25037;49.488;9.900;2023-01-15T07:09:11;10.40;74.50
39325;DHT22;25037;49.488;9.900;2023-01-15T07:11:38;10.40;74.50
39325;DHT22;25037;49.488;9.900;2023-01-15T07:14:20;10.30;74.50
39325;DHT22;25037;49.488;9.900;2023-01-15T07:16:47;10.30;74.60
39325;DHT22;25037;49.488;9.900;2023-01-15T07:19:14;10.20;74.50
39325;DHT22;25037;49.488;9.900;2023-01-15T07:21:41;10.20;74.50
39325;DHT22;25037;49.488;9.900;2023-01-15T07:24:09;10.20;74.50
39325;DHT22;25037;49.488;9.900;2023-01-15T07:26:36;10.10;74.60
39325;DHT22;25037;49.488;9.900;2023-01-15T07:29:03;10.10;74.60
39325;DHT22;25037;49.488;9.900;2023-01-15T07:31:31;10.10;74.70
39325;DHT22;25037;49.488;9.900;2023-01-15T07:33:57;10.10;74.70
39325;DHT22;25037;49.488;9.900;2023-01-15T07:36:24;10.10;74.70
39325;DHT22;25037;49.488;9.900;2023-01-15T07:38:51;10.10;74.50
39325;DHT22;25037;49.488;9.900;2023-01-15T07:41:18;10.10;74.40
39325;DHT22;25037;49.488;9.900;2023-01-15T07:44:03;10.10;74.30
39325;DHT22;25037;49.488;9.900;2023-01-15T07:46:49;10.10;74.40
39325;DHT22;25037;49.488;9.900;2023-01-15T07:49:34;10.10;74.40
39325;DHT22;25037;49.488;9.900;2023-01-15T07:52:19;10.10;74.30
39325;DHT22;25037;49.488;9.900;2023-01-15T07:54:47;10.10;74.40
39325;DHT22;25037;49.488;9.900;2023-01-15T07:57:20;10.10;74.30
39325;DHT22;25037;49.488;9.900;2023-01-15T07:59:48;10.10;74.30
39325;DHT22;25037;49.488;9.900;2023-01-15T08:02:15;10.10;74.40
39325;DHT22;25037;49.488;9.900;2023-01-15T08:04:42;10.10;74.40
39325;DHT22;25037;49.488;9.900;2023-01-15T08:07:09;10.20;74.40
39325;DHT22;25037;49.488;9.900;2023-01-15T08:09:36;10.20;74.50
39325;DHT22;25037;49.488;9.900;2023-01-15T08:12:03;10.20;74.60
39325;DHT22;25037;49.488;9.900;2023-01-15T08:14:49;10.10;74.50
39325;DHT22;25037;49.488;9.900;2023-01-15T08:17:35;10.10;74.40
39325;DHT22;25037;49.488;9.900;2023-01-15T08:20:08;10.10;74.60
39325;DHT22;25037;49.488;9.900;2023-01-15T08:22:35;10.10;74.60
39325;DHT22;25037;49.488;9.900;2023-01-15T08:25:06;10.10;74.50
39325;DHT22;25037;49.488;9.900;2023-01-15T08:27:33;10.00;74.50
39325;DHT22;25037;49.488;9.900;2023-01-15T08:29:59;10.10;74.60
39325;DHT22;25037;49.488;9.900;2023-01-15T08:32:26;10.00;74.60
39325;DHT22;25037;49.488;9.900;2023-01-15T08:34:53;10.00;74.60
39325;DHT22;25037;49.488;9.900;2023-01-15T08:37:19;10.00;74.60
39325;DHT22;25037;49.488;9.900;2023-01-15T08:39:47;9.90;74.50
39325;DHT22;25037;49.488;9.900;2023-01-15T08:42:16;9.90;74.60
39325;DHT22;25037;49.488;9.900;2023-01-15T08:44:42;9.90;74.60
39325;DHT22;25037;49.488;9.900;2023-01-15T08:47:09;9.80;74.60
39325;DHT22;25037;49.488;9.900;2023-01-15T08:49:36;9.80;74.50
39325;DHT22;25037;49.488;9.900;2023-01-15T08:52:03;9.80;74.70
39325;DHT22;25037;49.488;9.900;2023-01-15T08:54:30;9.80;74.60
39325;DHT22;25037;49.488;9.900;2023-01-15T08:56:58;9.80;74.70
39325;DHT22;25037;49.488;9.900;2023-01-15T08:59:25;9.80;74.80
39325;DHT22;25037;49.488;9.900;2023-01-15T09:01:52;9.80;74.80
39325;DHT22;25037;49.488;9.900;2023-01-15T09:04:20;9.80;74.80
39325;DHT22;25037;49.488;9.900;2023-01-15T09:06:48;9.80;74.80
39325;DHT22;25037;49.488;9.900;2023-01-15T09:09:15;9.80;74.70
39325;DHT22;25037;49.488;9.900;2023-01-15T09:11:41;9.80;74.60
39325;DHT22;25037;49.488;9.900;2023-01-15T09:14:13;9.80;74.60
39325;DHT22;25037;49.488;9.900;2023-01-15T09:17:00;9.80;74.60
39325;DHT22;25037;49.488;9.900;2023-01-15T09:19:26;9.80;74.50
39325;DHT22;25037;49.488;9.900;2023-01-15T09:21:53;9.80;74.40
39325;DHT22;25037;49.488;9.900;2023-01-15T09:24:19;9.80;74.20
39325;DHT22;25037;49.488;9.900;2023-01-15T09:26:46;9.70;74.10
39325;DHT22;25037;49.488;9.900;2023-01-15T09:29:13;9.70;73.90
39325;DHT22;25037;49.488;9.900;2023-01-15T09:31:40;9.70;73.70
39325;DHT22;25037;49.488;9.900;2023-01-15T09:34:06;9.70;73.50
39325;DHT22;25037;49.488;9.900;2023-01-15T09:36:34;9.70;73.40
39325;DHT22;25037;49.488;9.900;2023-01-15T09:39:02;9.60;73.20
39325;DHT22;25037;49.488;9.900;2023-01-15T09:47:23;9.70;73.40
39325;DHT22;25037;49.488;9.900;2023-01-15T09:53:04;9.70;73.40
39325;DHT22;25037;49.488;9.900;2023-01-15T09:55:44;9.60;73.20
39325;DHT22;25037;49.488;9.900;2023-01-15T09:58:13;9.70;73.70
39325;DHT22;25037;49.488;9.900;2023-01-15T10:00:44;9.70;73.50
39325;DHT22;25037;49.488;9.900;2023-01-15T10:03:23;9.70;73.00
39325;DHT22;25037;49.488;9.900;2023-01-15T10:06:12;9.70;72.80
39325;DHT22;25037;49.488;9.900;2023-01-15T10:08:45;9.70;72.30
39325;DHT22;25037;49.488;9.900;2023-01-15T10:14:12;9.50;72.60
39325;DHT22;25037;49.488;9.900;2023-01-15T10:16:40;9.40;72.60
39325;DHT22;25037;49.488;9.900;2023-01-15T10:19:08;9.40;72.70
39325;DHT22;25037;49.488;9.900;2023-01-15T10:22:09;9.30;72.80
39325;DHT22;25037;49.488;9.900;2023-01-15T10:24:39;9.40;73.00
39325;DHT22;25037;49.488;9.900;2023-01-15T10:27:21;9.30;73.00
39325;DHT22;25037;49.488;9.900;2023-01-15T10:30:05;9.30;72.80
39325;DHT22;25037;49.488;9.900;2023-01-15T10:35:35;9.30;73.00
39325;DHT22;25037;49.488;9.900;2023-01-15T10:38:26;9.30;73.00
39325;DHT22;25037;49.488;9.900;2023-01-15T10:44:23;9.30;72.90
39325;DHT22;25037;49.488;9.900;2023-01-15T10:46:58;9.30;72.90
39325;DHT22;25037;49.488;9.900;2023-01-15T10:49:29;9.30;72.80
39325;DHT22;25037;49.488;9.900;2023-01-15T10:52:07;9.30;72.70
39325;DHT22;25037;49.488;9.900;2023-01-15T10:54:46;9.20;72.80
39325;DHT22;25037;49.488;9.900;2023-01-15T10:59:58;9.30;72.80
39325;DHT22;25037;49.488;9.900;2023-01-15T11:02:36;9.30;72.70
39325;DHT22;25037;49.488;9.900;2023-01-15T11:05:05;9.30;72.50
39325;DHT22;25037;49.488;9.900;2023-01-15T11:07:40;9.30;72.50
39325;DHT22;25037;49.488;9.900;2023-01-15T11:10:27;9.30;72.50
39325;DHT22;25037;49.488;9.900;2023-01-15T11:12:56;9.30;72.60
39325;DHT22;25037;49.488;9.900;2023-01-15T11:15:48;9.30;72.40
39325;DHT22;25037;49.488;9.900;2023-01-15T11:18:42;9.30;72.40
39325;DHT22;25037;49.488;9.900;2023-01-15T11:21:29;9.30;72.40
39325;DHT22;25037;49.488;9.900;2023-01-15T11:23:57;9.30;72.50
39325;DHT22;25037;49.488;9.900;2023-01-15T11:26:30;9.20;72.40
39325;DHT22;25037;49.488;9.900;2023-01-15T11:29:00;9.10;72.50
39325;DHT22;25037;49.488;9.900;2023-01-15T11:31:39;9.10;72.50
39325;DHT22;25037;49.488;9.900;2023-01-15T11:34:18;9.00;72.50
39325;DHT22;25037;49.488;9.900;2023-01-15T11:36:47;9.00;72.40
39325;DHT22;25037;49.488;9.900;2023-01-15T11:39:27;8.90;72.50
39325;DHT22;25037;49.488;9.900;2023-01-15T11:42:01;8.90;72.50
39325;DHT22;25037;49.488;9.900;2023-01-15T11:44:55;8.90;72.50
39325;DHT22;25037;49.488;9.900;2023-01-15T11:47:53;8.90;72.40
39325;DHT22;25037;49.488;9.900;2023-01-15T11:50:59;8.90;72.40
39325;DHT22;25037;49.488;9.900;2023-01-15T11:53:28;8.90;72.40
39325;DHT22;25037;49.488;9.900;2023-01-15T11:56:04;8.80;72.30
39325;DHT22;25037;49.488;9.900;2023-01-15T11:58:39;8.80;72.30
39325;DHT22;25037;49.488;9.900;2023-01-15T12:01:06;8.70;72.30
39325;DHT22;25037;49.488;9.900;2023-01-15T12:03:35;8.50;71.20
39325;DHT22;25037;49.488;9.900;2023-01-15T12:06:05;8.20;71.10
39325;DHT22;25037;49.488;9.900;2023-01-15T12:08:48;8.10;71.30
39325;DHT22;25037;49.488;9.900;2023-01-15T12:11:44;7.90;71.00
39325;DHT22;25037;49.488;9.900;2023-01-15T12:14:35;7.70;71.30
39325;DHT22;25037;49.488;9.900;2023-01-15T12:20:30;7.60;71.80
39325;DHT22;25037;49.488;9.900;2023-01-15T12:23:03;7.50;71.90
39325;DHT22;25037;49.488;9.900;2023-01-15T12:28:19;7.50;72.30
39325;DHT22;25037;49.488;9.900;2023-01-15T12:31:29;7.50;72.30
39325;DHT22;25037;49.488;9.900;2023-01-15T12:34:22;7.50;72.00
39325;DHT22;25037;49.488;9.900;2023-01-15T12:36:56;7.50;72.10
39325;DHT22;25037;49.488;9.900;2023-01-15T12:39:32;7.50;72.20
39325;DHT22;25037;49.488;9.900;2023-01-15T12:42:03;7.50;72.30
39325;DHT22;25037;49.488;9.900;2023-01-15T12:44:57;7.50;72.30
39325;DHT22;25037;49.488;9.900;2023-01-15T12:50:38;7.60;72.20
39325;DHT22;25037;49.488;9.900;2023-01-15T12:58:55;7.50;72.60
39325;DHT22;25037;49.488;9.900;2023-01-15T13:01:33;7.60;72.40
39325;DHT22;25037;49.488;9.900;2023-01-15T13:06:45;7.60;72.50
39325;DHT22;25037;49.488;9.900;2023-01-15T13:09:40;7.60;72.40
39325;DHT22;25037;49.488;9.900;2023-01-15T13:12:14;7.60;72.50
39325;DHT22;25037;49.488;9.900;2023-01-15T13:14:42;7.50;72.40
39325;DHT22;25037;49.488;9.900;2023-01-15T13:17:21;7.50;72.30
39325;DHT22;25037;49.488;9.900;2023-01-15T13:22:54;7.40;72.60
39325;DHT22;25037;49.488;9.900;2023-01-15T13:28:23;7.40;72.40
39325;DHT22;25037;49.488;9.900;2023-01-15T13:33:40;7.30;72.50
39325;DHT22;25037;49.488;9.900;2023-01-15T13:36:23;7.30;72.50
39325;DHT22;25037;49.488;9.900;2023-01-15T13:38:53;7.30;72.50
39325;DHT22;25037;49.488;9.900;2023-01-15T13:41:24;7.20;72.60
39325;DHT22;25037;49.488;9.900;2023-01-15T13:44:19;7.20;72.70
39325;DHT22;25037;49.488;9.900;2023-01-15T13:46:57;7.20;72.80
39325;DHT22;25037;49.488;9.900;2023-01-15T13:49:33;7.20;72.80
39325;DHT22;25037;49.488;9.900;2023-01-15T13:52:02;7.20;72.70
39325;DHT22;25037;49.488;9.900;2023-01-15T13:54:32;7.10;72.80
39325;DHT22;25037;49.488;9.900;2023-01-15T13:59:53;7.20;72.80
39325;DHT22;25037;49.488;9.900;2023-01-15T14:04:53;7.30;72.80
39325;DHT22;25037;49.488;9.900;2023-01-15T14:07:33;7.50;72.80
39325;DHT22;25037;49.488;9.900;2023-01-15T14:10:23;7.80;72.80
39325;DHT22;25037;49.488;9.900;2023-01-15T14:30:12;8.70;71.20
39325;DHT22;25037;49.488;9.900;2023-01-15T14:35:34;8.50;70.90
39325;DHT22;25037;49.488;9.900;2023-01-15T14:38:06;8.30;70.70
39325;DHT22;25037;49.488;9.900;2023-01-15T14:40:34;8.30;70.60
39325;DHT22;25037;49.488;9.900;2023-01-15T14:43:08;8.20;70.80
39325;DHT22;25037;49.488;9.900;2023-01-15T14:45:38;8.30;71.00
39325;DHT22;25037;49.488;9.900;2023-01-15T14:51:13;8.30;70.90
39325;DHT22;25037;49.488;9.900;2023-01-15T14:56:33;8.20;70.70
39325;DHT22;25037;49.488;9.900;2023-01-15T14:59:22;8.10;70.60
39325;DHT22;25037;49.488;9.900;2023-01-15T15:01:54;8.00;70.70
39325;DHT22;25037;49.488;9.900;2023-01-15T15:09:33;7.90;70.70
39325;DHT22;25037;49.488;9.900;2023-01-15T15:23:19;7.80;70.40
39325;DHT22;25037;49.488;9.900;2023-01-15T15:26:00;7.80;70.30
39325;DHT22;25037;49.488;9.900;2023-01-15T15:28:27;7.80;70.30
39325;DHT22;25037;49.488;9.900;2023-01-15T15:30:56;7.80;70.30
39325;DHT22;25037;49.488;9.900;2023-01-15T15:33:36;7.80;70.30
39325;DHT22;25037;49.488;9.900;2023-01-15T15:36:04;7.80;70.30
39325;DHT22;25037;49.488;9.900;2023-01-15T15:38:32;7.70;70.20
39325;DHT22;25037;49.488;9.900;2023-01-15T15:41:03;7.60;70.10
39325;DHT22;25037;49.488;9.900;2023-01-15T15:43:52;7.50;70.00
39325;DHT22;25037;49.488;9.900;2023-01-15T15:46:48;7.50;70.20
39325;DHT22;25037;49.488;9.900;2023-01-15T15:49:38;7.40;70.30
39325;DHT22;25037;49.488;9.900;2023-01-15T15:52:20;7.40;70.40
39325;DHT22;25037;49.488;9.900;2023-01-15T15:54:59;7.40;70.10
39325;DHT22;25037;49.488;9.900;2023-01-15T15:57:28;7.30;69.90
39325;DHT22;25037;49.488;9.900;2023-01-15T15:59:56;7.30;69.80
39325;DHT22;25037;49.488;9.900;2023-01-15T16:02:29;7.30;69.80
39325;DHT22;25037;49.488;9.900;2023-01-15T16:05:02;7.30;69.60
39325;DHT22;25037;49.488;9.900;2023-01-15T16:07:31;7.30;69.60
39325;DHT22;25037;49.488;9.900;2023-01-15T16:10:14;7.40;69.50
39325;DHT22;25037;49.488;9.900;2023-01-15T16:12:51;7.30;69.50
39325;DHT22;25037;49.488;9.900;2023-01-15T16:15:38;7.30;69.40
39325;DHT22;25037;49.488;9.900;2023-01-15T16:18:21;7.30;69.50
39325;DHT22;25037;49.488;9.900;2023-01-15T16:20:49;7.30;69.40
39325;DHT22;25037;49.488;9.900;2023-01-15T16:23:22;7.30;69.40
39325;DHT22;25037;49.488;9.900;2023-01-15T16:26:16;7.30;69.40
39325;DHT22;25037;49.488;9.900;2023-01-15T16:28:53;7.30;69.40
39325;DHT22;25037;49.488;9.900;2023-01-15T16:31:21;7.40;69.40
39325;DHT22;25037;49.488;9.900;2023-01-15T16:33:55;7.40;69.50
39325;DHT22;25037;49.488;9.900;2023-01-15T16:36:23;7.40;69.30
39325;DHT22;25037;49.488;9.900;2023-01-15T16:38:51;7.40;69.50
39325;DHT22;25037;49.488;9.900;2023-01-15T16:41:24;7.30;69.40
39325;DHT22;25037;49.488;9.900;2023-01-15T16:43:59;7.30;69.40
39325;DHT22;25037;49.488;9.900;2023-01-15T16:46:30;7.20;69.50
39325;DHT22;25037;49.488;9.900;2023-01-15T16:49:21;7.20;69.70
39325;DHT22;25037;49.488;9.900;2023-01-15T16:51:52;7.20;69.80
39325;DHT22;25037;49.488;9.900;2023-01-15T16:57:25;7.20;69.60
39325;DHT22;25037;49.488;9.900;2023-01-15T16:59:58;7.20;69.70
39325;DHT22;25037;49.488;9.900;2023-01-15T17:02:31;7.20;69.90
39325;DHT22;25037;49.488;9.900;2023-01-15T17:05:00;7.20;69.90
39325;DHT22;25037;49.488;9.900;2023-01-15T17:07:39;7.20;69.80
39325;DHT22;25037;49.488;9.900;2023-01-15T17:10:24;7.20;69.60
39325;DHT22;25037;49.488;9.900;2023-01-15T17:12:51;7.30;69.50
39325;DHT22;25037;49.488;9.900;2023-01-15T17:17:54;7.30;69.40
39325;DHT22;25037;49.488;9.900;2023-01-15T17:20:22;7.30;69.50
39325;DHT22;25037;49.488;9.900;2023-01-15T17:22:53;7.30;69.40
39325;DHT22;25037;49.488;9.900;2023-01-15T17:27:51;7.40;69.20
39325;DHT22;25037;49.488;9.900;2023-01-15T17:30:19;7.40;69.20
39325;DHT22;25037;49.488;9.900;2023-01-15T17:32:45;7.40;69.10
39325;DHT22;25037;49.488;9.900;2023-01-15T17:35:22;7.40;69.10
39325;DHT22;25037;49.488;9.900;2023-01-15T17:37:49;7.50;69.00
39325;DHT22;25037;49.488;9.900;2023-01-15T17:40:16;7.50;69.00
39325;DHT22;25037;49.488;9.900;2023-01-15T17:42:43;7.50;68.90
39325;DHT22;25037;49.488;9.900;2023-01-15T17:45:22;7.60;68.90
39325;DHT22;25037;49.488;9.900;2023-01-15T17:47:49;7.60;68.60
39325;DHT22;25037;49.488;9.900;2023-01-15T17:50:17;7.60;68.60
39325;DHT22;25037;49.488;9.900;2023-01-15T17:52:44;7.60;68.50
39325;DHT22;25037;49.488;9.900;2023-01-15T17:55:16;7.50;68.30
39325;DHT22;25037;49.488;9.900;2023-01-15T17:58:02;7.40;68.10
39325;DHT22;25037;49.488;9.900;2023-01-15T18:00:48;7.30;68.10
39325;DHT22;25037;49.488;9.900;2023-01-15T18:03:35;7.20;68.10
39325;DHT22;25037;49.488;9.900;2023-01-15T18:06:22;7.10;68.00
39325;DHT22;25037;49.488;9.900;2023-01-15T18:08:53;7.00;68.00
39325;DHT22;25037;49.488;9.900;2023-01-15T18:11:20;7.00;67.90
39325;DHT22;25037;49.488;9.900;2023-01-15T18:13:47;6.90;67.90